createdAt,value
2024-02-27T00:01:57.242Z,99717.80
2024-02-27T00:04:11.182Z,99719.08
2024-02-27T00:06:24.090Z,99723.39
2024-02-27T00:08:36.992Z,99724.08
2024-02-27T00:10:49.775Z,99727.77
2024-02-27T00:13:03.291Z,99731.87
2024-02-27T00:15:16.396Z,99734.84
2024-02-27T00:17:29.166Z,99737.95
2024-02-27T00:19:42.077Z,99740.52
2024-02-27T00:21:55.213Z,99741.87
2024-02-27T00:24:08.205Z,99745.96
2024-02-27T00:26:21.065Z,99747.10
2024-02-27T00:28:33.812Z,99749.80
2024-02-27T00:30:47.562Z,99748.33
2024-02-27T00:33:00.484Z,99745.65
2024-02-27T00:35:14.546Z,99754.16
2024-02-27T00:37:27.172Z,99752.71
2024-02-27T00:39:39.916Z,99750.02
2024-02-27T00:41:52.981Z,99752.38
2024-02-27T00:44:07.562Z,99753.36
2024-02-27T00:46:20.437Z,99751.20
2024-02-27T00:48:34.302Z,99759.30
2024-02-27T00:50:48.456Z,99755.88
2024-02-27T00:53:01.240Z,99760.75
2024-02-27T00:55:14.168Z,99761.23
2024-02-27T00:57:26.989Z,99762.05
2024-02-27T00:59:39.768Z,99763.25
2024-02-27T01:01:54.170Z,99762.34
2024-02-27T01:04:06.869Z,99762.55
2024-02-27T01:06:20.056Z,99764.92
2024-02-27T01:08:32.874Z,99772.13
2024-02-27T01:10:45.928Z,99772.70
2024-02-27T01:12:58.772Z,99774.05
2024-02-27T01:15:11.601Z,99779.48
2024-02-27T01:17:24.872Z,99777.08
2024-02-27T01:19:37.783Z,99783.74
2024-02-27T01:21:50.577Z,99785.16
2024-02-27T01:24:07.458Z,99782.29
2024-02-27T01:26:20.315Z,99768.79
2024-02-27T01:28:33.079Z,99765.16
2024-02-27T01:30:45.922Z,99761.34
2024-02-27T01:32:58.829Z,99752.02
2024-02-27T01:35:11.783Z,99753.20
2024-02-27T01:37:24.790Z,99752.70
2024-02-27T01:39:37.623Z,99755.48
2024-02-27T01:41:50.628Z,99755.70
2024-02-27T01:44:03.681Z,99754.13
2024-02-27T01:46:19.648Z,99761.09
2024-02-27T01:48:34.723Z,99763.21
2024-02-27T01:50:47.796Z,99760.23
2024-02-27T01:53:00.613Z,99765.89
2024-02-27T01:55:15.445Z,99770.02
2024-02-27T01:57:28.805Z,99772.30
2024-02-27T01:59:45.059Z,99773.79
2024-02-27T02:02:01.100Z,99777.42
2024-02-27T02:04:14.468Z,99794.42
2024-02-27T02:06:27.412Z,99805.29
2024-02-27T02:08:40.348Z,99810.06
2024-02-27T02:10:53.154Z,99806.72
2024-02-27T02:13:05.895Z,99811.16
2024-02-27T02:15:18.949Z,99816.67
2024-02-27T02:17:33.294Z,99818.21
2024-02-27T02:19:46.096Z,99817.49
2024-02-27T02:21:59.168Z,99822.27
2024-02-27T02:24:12.606Z,99825.83
2024-02-27T02:26:28.729Z,99828.27
2024-02-27T02:28:41.690Z,99828.65
2024-02-27T02:30:54.490Z,99828.19
2024-02-27T02:33:08.404Z,99837.91
2024-02-27T02:35:21.385Z,99839.45
2024-02-27T02:37:34.077Z,99840.58
2024-02-27T02:39:46.831Z,99843.13
2024-02-27T02:41:59.665Z,99837.39
2024-02-27T02:44:12.460Z,99835.98
2024-02-27T02:46:25.102Z,99844.09
2024-02-27T02:48:39.545Z,99846.30
2024-02-27T02:50:52.424Z,99849.04
2024-02-27T02:53:05.183Z,99854.06
2024-02-27T02:55:17.978Z,99858.38
2024-02-27T02:57:30.995Z,99857.91
2024-02-27T02:59:44.708Z,99857.45
2024-02-27T03:01:57.583Z,99857.64
2024-02-27T03:04:10.815Z,99856.04
2024-02-27T03:06:23.748Z,99861.05
2024-02-27T03:08:36.565Z,99862.59
2024-02-27T03:10:49.789Z,99863.34
2024-02-27T03:13:02.629Z,99863.64
2024-02-27T03:15:15.507Z,99865.85
2024-02-27T03:17:28.347Z,99870.56
2024-02-27T03:19:42.076Z,99870.31
2024-02-27T03:21:57.732Z,99866.89
2024-02-27T03:24:10.432Z,99865.70
2024-02-27T03:26:23.200Z,99865.86
2024-02-27T03:28:36.976Z,99870.15
2024-02-27T03:30:49.629Z,99877.40
2024-02-27T03:33:02.509Z,99879.19
2024-02-27T03:35:15.544Z,99878.38
2024-02-27T03:37:28.174Z,99880.48
2024-02-27T03:39:40.892Z,99882.79
2024-02-27T03:41:53.607Z,99881.00
2024-02-27T03:44:06.339Z,99882.56
2024-02-27T03:46:19.154Z,99886.68
2024-02-27T03:48:31.989Z,99889.12
2024-02-27T03:50:45.073Z,99890.89
2024-02-27T03:52:57.804Z,99891.80
2024-02-27T03:55:10.509Z,99896.65
2024-02-27T03:57:24.701Z,99895.69
2024-02-27T03:59:37.452Z,99896.73
2024-02-27T04:01:52.876Z,99898.10
2024-02-27T04:04:06.326Z,99897.09
2024-02-27T04:06:19.254Z,99898.29
2024-02-27T04:08:32.104Z,99897.85
2024-02-27T04:10:44.929Z,99901.13
2024-02-27T04:12:57.713Z,99904.21
2024-02-27T04:15:10.647Z,99908.50
2024-02-27T04:17:23.382Z,99910.91
2024-02-27T04:19:36.248Z,99910.58
2024-02-27T04:21:48.991Z,99908.40
2024-02-27T04:24:01.885Z,99914.56
2024-02-27T04:26:14.663Z,99915.11
2024-02-27T04:28:28.345Z,99925.25
2024-02-27T04:30:41.985Z,99920.39
2024-02-27T04:32:54.800Z,99928.88
2024-02-27T04:35:08.559Z,99930.09
2024-02-27T04:37:21.318Z,99924.72
2024-02-27T04:39:34.091Z,99929.59
2024-02-27T04:41:46.930Z,99918.66
2024-02-27T04:43:59.602Z,99918.51
2024-02-27T04:46:12.254Z,99921.40
2024-02-27T04:48:25.023Z,99920.39
2024-02-27T04:50:38.140Z,99922.29
2024-02-27T04:52:50.908Z,99922.83
2024-02-27T04:55:03.896Z,99925.60
2024-02-27T04:57:16.807Z,99925.59
2024-02-27T04:59:29.487Z,99927.88
2024-02-27T05:01:42.327Z,99928.08
2024-02-27T05:03:55.223Z,99927.92
2024-02-27T05:06:08.036Z,99929.32
2024-02-27T05:08:20.872Z,99930.05
2024-02-27T05:10:33.772Z,99927.18
2024-02-27T05:12:46.535Z,99932.01
2024-02-27T05:14:59.238Z,99928.58
2024-02-27T05:17:11.950Z,99937.77
2024-02-27T05:19:24.900Z,99936.38
2024-02-27T05:21:38.669Z,99936.55
2024-02-27T05:23:51.528Z,99944.45
2024-02-27T05:26:05.117Z,99948.77
2024-02-27T05:28:17.783Z,99947.75
2024-02-27T05:30:31.678Z,99947.31
2024-02-27T05:32:44.887Z,99947.31
2024-02-27T05:34:57.804Z,99953.67
2024-02-27T05:37:10.639Z,99957.31
2024-02-27T05:39:24.054Z,99953.25
2024-02-27T05:41:36.976Z,99964.39
2024-02-27T05:43:50.372Z,99963.59
2024-02-27T05:46:06.689Z,99960.20
2024-02-27T05:48:19.465Z,99960.41
2024-02-27T05:50:32.181Z,99960.20
2024-02-27T05:52:44.971Z,99958.66
2024-02-27T05:54:58.267Z,99970.64
2024-02-27T05:57:12.499Z,99973.70
2024-02-27T05:59:25.456Z,99975.86
2024-02-27T06:01:38.448Z,99982.48
2024-02-27T06:03:51.377Z,99981.63
2024-02-27T06:06:04.522Z,99985.33
2024-02-27T06:08:18.264Z,99989.19
2024-02-27T06:10:31.011Z,99992.49
2024-02-27T06:12:43.824Z,99987.85
2024-02-27T06:14:56.576Z,99987.77
2024-02-27T06:17:09.374Z,99983.76
2024-02-27T06:19:27.412Z,99994.23
2024-02-27T06:21:58.635Z,99997.09
2024-02-27T06:24:11.408Z,100005.13
2024-02-27T06:26:24.118Z,100015.48
2024-02-27T06:28:36.931Z,100022.76
2024-02-27T06:30:49.996Z,100028.11
2024-02-27T06:33:03.031Z,100033.95
2024-02-27T06:35:15.995Z,100032.42
2024-02-27T06:37:28.598Z,100037.41
2024-02-27T06:39:41.374Z,100037.46
2024-02-27T06:41:54.402Z,100030.48
2024-02-27T06:44:08.264Z,100022.84
2024-02-27T06:46:21.158Z,100024.90
2024-02-27T06:48:35.103Z,100015.79
2024-02-27T06:50:47.869Z,99998.09
2024-02-27T06:53:00.871Z,99991.77
2024-02-27T06:55:14.209Z,99996.36
2024-02-27T06:57:26.960Z,100003.55
2024-02-27T06:59:39.614Z,100011.23
2024-02-27T07:01:52.326Z,100016.27
2024-02-27T07:04:05.071Z,100015.33
2024-02-27T07:06:18.051Z,100010.25
2024-02-27T07:08:30.710Z,100011.84
2024-02-27T07:10:43.434Z,100018.27
2024-02-27T07:12:56.156Z,100031.27
2024-02-27T07:15:10.296Z,100035.77
2024-02-27T07:17:24.261Z,100035.17
2024-02-27T07:19:37.376Z,100040.21
2024-02-27T07:21:50.144Z,100038.16
2024-02-27T07:24:03.032Z,100045.38
2024-02-27T07:26:16.075Z,100054.13
2024-02-27T07:28:33.620Z,100064.18
2024-02-27T07:30:49.464Z,100058.30
2024-02-27T07:33:02.566Z,100055.25
2024-02-27T07:35:15.615Z,100050.43
2024-02-27T07:37:28.325Z,100060.06
2024-02-27T07:39:41.330Z,100058.45
2024-02-27T07:41:54.034Z,100059.09
2024-02-27T07:44:07.147Z,100074.24
2024-02-27T07:46:19.857Z,100078.59
2024-02-27T07:48:32.622Z,100082.94
2024-02-27T07:50:45.407Z,100075.25
2024-02-27T07:53:00.022Z,100074.15
2024-02-27T07:55:13.041Z,100078.52
2024-02-27T07:57:26.533Z,100084.95
2024-02-27T07:59:39.846Z,100090.53
2024-02-27T08:01:55.470Z,100085.55
2024-02-27T08:04:11.019Z,100079.09
2024-02-27T08:06:24.367Z,100077.17
2024-02-27T08:08:37.080Z,100081.30
2024-02-27T08:10:49.784Z,100090.21
2024-02-27T08:13:02.495Z,100094.21
2024-02-27T08:15:16.747Z,100097.88
2024-02-27T08:17:29.480Z,100099.23
2024-02-27T08:19:42.483Z,100104.23
2024-02-27T08:21:55.238Z,100112.96
2024-02-27T08:24:10.130Z,100111.48
2024-02-27T08:26:23.450Z,100111.90
2024-02-27T08:28:36.218Z,100112.50
2024-02-27T08:30:49.535Z,100118.89
2024-02-27T08:33:02.545Z,100117.77
2024-02-27T08:35:16.793Z,100120.42
2024-02-27T08:37:31.298Z,100119.79
2024-02-27T08:39:44.019Z,100126.25
2024-02-27T08:41:56.736Z,100123.75
2024-02-27T08:44:09.399Z,100115.23
2024-02-27T08:46:22.144Z,100113.09
2024-02-27T08:48:34.903Z,100112.98
2024-02-27T08:50:48.728Z,100118.06
2024-02-27T08:53:01.617Z,100122.85
2024-02-27T08:55:14.295Z,100126.36
2024-02-27T08:57:27.403Z,100132.34
2024-02-27T08:59:41.082Z,100133.71
2024-02-27T09:01:53.740Z,100135.72
2024-02-27T09:04:06.425Z,100135.29
2024-02-27T09:06:19.306Z,100139.59
2024-02-27T09:08:32.747Z,100139.73
2024-02-27T09:10:45.659Z,100140.94
2024-02-27T09:12:58.907Z,100144.48
2024-02-27T09:15:11.872Z,100143.00
2024-02-27T09:17:24.654Z,100142.91
2024-02-27T09:19:37.673Z,100142.48
2024-02-27T09:21:50.426Z,100137.09
2024-02-27T09:24:03.288Z,100130.88
2024-02-27T09:26:15.960Z,100128.79
2024-02-27T09:28:28.629Z,100132.65
2024-02-27T09:30:41.838Z,100133.31
2024-02-27T09:32:54.633Z,100131.58
2024-02-27T09:35:10.356Z,100134.11
2024-02-27T09:37:23.708Z,100141.31
2024-02-27T09:39:43.882Z,100141.34
2024-02-27T09:42:07.349Z,100145.05
2024-02-27T09:44:20.556Z,100147.30
2024-02-27T09:46:36.110Z,100146.19
2024-02-27T09:48:51.608Z,100147.77
2024-02-27T09:51:06.074Z,100149.46
2024-02-27T09:53:21.114Z,100149.80
2024-02-27T09:55:33.948Z,100148.02
2024-02-27T09:57:48.679Z,100146.79
2024-02-27T10:00:01.697Z,100153.64
2024-02-27T10:02:17.329Z,100155.38
2024-02-27T10:04:31.732Z,100158.05
2024-02-27T10:06:47.688Z,100159.30
2024-02-27T10:09:07.058Z,100167.42
2024-02-27T10:11:20.784Z,100172.61
2024-02-27T10:13:33.502Z,100175.84
2024-02-27T10:15:46.275Z,100177.25
2024-02-27T10:17:59.897Z,100173.72
2024-02-27T10:20:14.693Z,100172.89
2024-02-27T10:22:27.512Z,100175.77
2024-02-27T10:24:40.869Z,100180.73
2024-02-27T10:26:54.658Z,100184.89
2024-02-27T10:29:07.300Z,100186.08
2024-02-27T10:31:20.238Z,100183.89
2024-02-27T10:33:33.274Z,100181.50
2024-02-27T10:35:48.688Z,100181.27
2024-02-27T10:38:14.511Z,100178.63
2024-02-27T10:40:32.224Z,100182.65
2024-02-27T10:42:45.723Z,100178.16
2024-02-27T10:44:58.615Z,100171.46
2024-02-27T10:47:12.518Z,100169.05
2024-02-27T10:49:25.607Z,100174.06
2024-02-27T10:51:39.795Z,100171.69
2024-02-27T10:53:55.153Z,100168.27
2024-02-27T10:56:09.408Z,100169.80
2024-02-27T10:58:23.865Z,100174.58
2024-02-27T11:00:36.893Z,100174.56
2024-02-27T11:02:51.782Z,100170.38
2024-02-27T11:05:05.187Z,100173.62
2024-02-27T11:07:19.206Z,100165.95
2024-02-27T11:09:34.060Z,100168.47
2024-02-27T11:11:50.889Z,100172.08
2024-02-27T11:14:08.064Z,100172.86
2024-02-27T11:16:22.695Z,100168.05
2024-02-27T11:18:37.403Z,100164.58
2024-02-27T11:20:50.789Z,100169.27
2024-02-27T11:23:04.920Z,100162.63
2024-02-27T11:25:17.651Z,100161.43
2024-02-27T11:27:30.642Z,100160.29
2024-02-27T11:29:44.257Z,100152.05
2024-02-27T11:31:57.566Z,100152.80
2024-02-27T11:34:10.464Z,100153.89
2024-02-27T11:36:25.106Z,100153.52
2024-02-27T11:38:39.186Z,100150.29
2024-02-27T11:40:54.390Z,100152.70
2024-02-27T11:43:08.638Z,100151.30
2024-02-27T11:45:28.721Z,100151.30
2024-02-27T11:47:54.767Z,100148.69
2024-02-27T11:50:35.095Z,100147.43
2024-02-27T11:52:48.026Z,100149.01
2024-02-27T11:55:11.656Z,100156.99
2024-02-27T11:57:24.856Z,100161.40
2024-02-27T11:59:37.643Z,100165.98
2024-02-27T12:02:02.245Z,100163.52
2024-02-27T12:04:15.065Z,100165.33
2024-02-27T12:06:27.836Z,100163.38
2024-02-27T12:08:48.065Z,100164.04
2024-02-27T12:11:01.295Z,100162.34
2024-02-27T12:13:14.810Z,100162.70
2024-02-27T12:15:27.946Z,100163.44
2024-02-27T12:17:40.908Z,100165.70
2024-02-27T12:19:53.793Z,100166.96
2024-02-27T12:22:06.852Z,100168.30
2024-02-27T12:24:22.799Z,100169.42
2024-02-27T12:26:35.732Z,100169.75
2024-02-27T12:28:48.851Z,100169.70
2024-02-27T12:31:01.887Z,100170.66
2024-02-27T12:33:17.038Z,100168.48
2024-02-27T12:35:29.960Z,100169.46
2024-02-27T12:37:43.534Z,100171.09
2024-02-27T12:39:56.507Z,100171.73
2024-02-27T12:42:09.400Z,100172.14
2024-02-27T12:44:22.084Z,100173.09
2024-02-27T12:46:35.792Z,100177.32
2024-02-27T12:48:48.993Z,100179.36
2024-02-27T12:51:02.810Z,100179.66
2024-02-27T12:53:15.622Z,100184.27
2024-02-27T12:55:29.132Z,100185.67
2024-02-27T12:57:41.801Z,100183.97
2024-02-27T12:59:55.501Z,100185.07
2024-02-27T13:02:08.934Z,100184.71
2024-02-27T13:04:24.407Z,100188.79
2024-02-27T13:06:37.244Z,100188.71
2024-02-27T13:08:49.966Z,100188.13
2024-02-27T13:11:02.739Z,100187.02
2024-02-27T13:13:18.330Z,100185.69
2024-02-27T13:15:31.246Z,100188.02
2024-02-27T13:17:44.228Z,100186.48
2024-02-27T13:19:57.948Z,100187.09
2024-02-27T13:22:10.934Z,100186.42
2024-02-27T13:24:24.735Z,100187.80
2024-02-27T13:26:37.707Z,100190.27
2024-02-27T13:28:50.441Z,100190.67
2024-02-27T13:31:04.705Z,100188.67
2024-02-27T13:33:17.873Z,100184.92
2024-02-27T13:35:30.869Z,100189.41
2024-02-27T13:37:43.680Z,100188.95
2024-02-27T13:39:56.334Z,100186.54
2024-02-27T13:42:09.079Z,100184.41
2024-02-27T13:46:53.851Z,100179.91
2024-02-27T13:49:09.531Z,100180.02
2024-02-27T13:51:22.314Z,100175.11
2024-02-27T13:53:35.176Z,100174.64
2024-02-27T13:55:47.852Z,100174.23
2024-02-27T13:58:00.553Z,100174.65
2024-02-27T14:00:13.902Z,100180.67
2024-02-27T14:02:27.013Z,100180.68
2024-02-27T14:04:39.752Z,100185.22
2024-02-27T14:06:52.709Z,100184.05
2024-02-27T14:09:05.447Z,100184.35
2024-02-27T14:11:19.457Z,100185.71
2024-02-27T14:13:32.161Z,100184.39
2024-02-27T14:15:47.173Z,100182.32
2024-02-27T14:17:59.898Z,100181.70
2024-02-27T14:20:12.807Z,100183.45
2024-02-27T14:22:25.644Z,100184.02
2024-02-27T14:24:38.542Z,100184.80
2024-02-27T14:26:53.765Z,100188.69
2024-02-27T14:29:06.747Z,100186.46
2024-02-27T14:31:20.240Z,100180.25
2024-02-27T14:33:33.088Z,100178.79
2024-02-27T14:35:45.836Z,100181.61
2024-02-27T14:37:58.490Z,100184.90
2024-02-27T14:40:11.550Z,100184.17
2024-02-27T14:42:24.306Z,100186.12
2024-02-27T14:44:37.031Z,100187.58
2024-02-27T14:46:49.696Z,100187.20
2024-02-27T14:49:04.943Z,100190.15
2024-02-27T14:51:17.906Z,100189.11
2024-02-27T14:53:31.206Z,100194.09
2024-02-27T14:55:44.183Z,100196.48
2024-02-27T14:57:56.866Z,100200.27
2024-02-27T15:00:10.161Z,100201.16
2024-02-27T15:02:23.301Z,100205.64
2024-02-27T15:04:36.053Z,100205.27
2024-02-27T15:06:48.864Z,100206.11
2024-02-27T15:09:01.569Z,100207.24
2024-02-27T15:11:14.323Z,100210.48
2024-02-27T15:13:27.045Z,100205.25
2024-02-27T15:15:39.935Z,100204.97
2024-02-27T15:17:52.877Z,100208.15
2024-02-27T15:20:07.879Z,100209.89
2024-02-27T15:22:20.509Z,100211.89
2024-02-27T15:24:33.225Z,100212.79
2024-02-27T15:26:46.026Z,100217.53
2024-02-27T15:28:58.839Z,100222.79
2024-02-27T15:31:14.740Z,100222.41
2024-02-27T15:33:27.717Z,100223.90
2024-02-27T15:35:43.524Z,100228.10
2024-02-27T15:37:56.463Z,100226.37
2024-02-27T15:40:09.585Z,100234.16
2024-02-27T15:42:22.388Z,100233.73
2024-02-27T15:44:35.060Z,100234.68
2024-02-27T15:46:47.895Z,100232.17
2024-02-27T15:49:00.647Z,100233.65
2024-02-27T15:51:13.698Z,100237.14
2024-02-27T15:53:26.624Z,100239.20
2024-02-27T15:55:41.696Z,100241.90
2024-02-27T15:57:54.461Z,100242.93
2024-02-27T16:00:09.647Z,100241.80
2024-02-27T16:02:24.349Z,100245.14
2024-02-27T16:04:59.615Z,100248.39
2024-02-27T16:07:16.221Z,100248.79
2024-02-27T16:09:29.177Z,100245.83
2024-02-27T16:11:41.874Z,100243.35
2024-02-27T16:13:54.602Z,100247.98
2024-02-27T16:16:07.575Z,100251.15
2024-02-27T16:18:20.378Z,100256.04
2024-02-27T16:20:33.131Z,100258.63
2024-02-27T16:22:45.813Z,100257.20
2024-02-27T16:24:58.519Z,100256.46
2024-02-27T16:27:11.261Z,100254.93
2024-02-27T16:29:24.527Z,100267.21
2024-02-27T16:31:37.241Z,100264.66
2024-02-27T16:33:50.220Z,100267.74
2024-02-27T16:36:05.343Z,100268.34
2024-02-27T16:38:18.645Z,100269.11
2024-02-27T16:40:31.464Z,100266.60
2024-02-27T16:42:45.494Z,100267.70
2024-02-27T16:44:58.453Z,100273.27
2024-02-27T16:47:11.426Z,100277.55
2024-02-27T16:49:24.400Z,100280.19
2024-02-27T16:51:37.324Z,100284.23
2024-02-27T16:53:49.935Z,100288.77
2024-02-27T16:56:03.313Z,100287.77
2024-02-27T16:58:15.934Z,100292.78
2024-02-27T17:00:29.057Z,100294.65
2024-02-27T17:02:41.719Z,100296.30
2024-02-27T17:04:54.497Z,100298.27
2024-02-27T17:07:07.303Z,100295.84
2024-02-27T17:09:21.123Z,100296.73
2024-02-27T17:11:33.972Z,100304.38
2024-02-27T17:13:46.696Z,100307.16
2024-02-27T17:15:59.561Z,100308.27
2024-02-27T17:18:12.550Z,100314.32
2024-02-27T17:20:25.433Z,100309.00
2024-02-27T17:22:38.206Z,100314.28
2024-02-27T17:24:50.877Z,100313.95
2024-02-27T17:27:03.743Z,100310.98
2024-02-27T17:29:16.421Z,100315.93
2024-02-27T17:31:29.659Z,100311.95
2024-02-27T17:33:42.482Z,100309.72
2024-02-27T17:35:55.356Z,100311.33
2024-02-27T17:38:08.051Z,100310.72
2024-02-27T17:40:21.018Z,100314.91
2024-02-27T17:42:33.742Z,100312.40
2024-02-27T17:44:46.515Z,100310.20
2024-02-27T17:46:59.272Z,100308.80
2024-02-27T17:49:13.238Z,100306.45
2024-02-27T17:51:26.206Z,100305.90
2024-02-27T17:53:38.970Z,100310.10
2024-02-27T17:55:51.784Z,100306.66
2024-02-27T17:58:06.731Z,100313.84
2024-02-27T18:00:20.220Z,100314.91
2024-02-27T18:02:33.042Z,100311.70
2024-02-27T18:04:47.552Z,100317.79
2024-02-27T18:07:00.495Z,100316.96
2024-02-27T18:09:15.331Z,100315.23
2024-02-27T18:11:28.280Z,100315.26
2024-02-27T18:13:40.924Z,100315.59
2024-02-27T18:15:53.857Z,100320.77
2024-02-27T18:18:06.927Z,100326.54
2024-02-27T18:20:19.733Z,100327.33
2024-02-27T18:22:32.750Z,100324.62
2024-02-27T18:24:45.708Z,100328.89
2024-02-27T18:26:58.386Z,100329.98
2024-02-27T18:29:11.127Z,100336.41
2024-02-27T18:31:24.493Z,100338.14
2024-02-27T18:33:37.302Z,100340.03
2024-02-27T18:35:52.989Z,100341.33
2024-02-27T18:38:05.904Z,100337.59
2024-02-27T18:40:18.902Z,100337.16
2024-02-27T18:42:31.661Z,100331.73
2024-02-27T18:44:44.478Z,100327.41
2024-02-27T18:46:57.247Z,100320.15
2024-02-27T18:49:10.848Z,100320.93
2024-02-27T18:51:23.696Z,100326.06
2024-02-27T18:53:38.075Z,100324.74
2024-02-27T18:55:50.813Z,100327.82
2024-02-27T18:58:06.783Z,100341.54
2024-02-27T19:00:19.954Z,100340.29
2024-02-27T19:02:32.749Z,100340.42
2024-02-27T19:04:45.494Z,100338.48
2024-02-27T19:06:59.491Z,100339.55
2024-02-27T19:09:12.657Z,100343.99
2024-02-27T19:11:25.934Z,100336.27
2024-02-27T19:13:38.857Z,100341.21
2024-02-27T19:15:52.049Z,100342.77
2024-02-27T19:18:05.221Z,100347.06
2024-02-27T19:20:18.053Z,100347.53
2024-02-27T19:22:32.105Z,100346.48
2024-02-27T19:24:45.541Z,100350.50
2024-02-27T19:26:58.406Z,100347.57
2024-02-27T19:29:11.131Z,100340.61
2024-02-27T19:31:23.845Z,100342.69
2024-02-27T19:33:36.746Z,100349.03
2024-02-27T19:35:49.522Z,100350.59
2024-02-27T19:38:09.984Z,100347.14
2024-02-27T19:40:27.126Z,100350.48
2024-02-27T19:42:40.351Z,100353.27
2024-02-27T19:44:53.120Z,100355.30
2024-02-27T19:47:08.804Z,100364.45
2024-02-27T19:49:23.097Z,100365.45
2024-02-27T19:51:35.862Z,100364.25
2024-02-27T19:53:49.972Z,100362.11
2024-02-27T19:56:03.213Z,100365.97
2024-02-27T19:58:15.856Z,100366.27
2024-02-27T20:00:29.324Z,100359.23
2024-02-27T20:02:42.132Z,100363.88
2024-02-27T20:04:54.795Z,100366.57
2024-02-27T20:07:08.360Z,100364.91
2024-02-27T20:09:21.236Z,100362.52
2024-02-27T20:11:34.135Z,100366.33
2024-02-27T20:13:47.408Z,100367.23
2024-02-27T20:16:00.685Z,100374.29
2024-02-27T20:18:13.829Z,100380.03
2024-02-27T20:20:28.246Z,100383.44
2024-02-27T20:22:41.010Z,100376.27
2024-02-27T20:24:53.862Z,100377.24
2024-02-27T20:27:07.098Z,100378.06
2024-02-27T20:29:19.799Z,100372.73
2024-02-27T20:31:34.703Z,100365.31
2024-02-27T20:33:49.016Z,100373.06
2024-02-27T20:36:02.171Z,100374.06
2024-02-27T20:38:16.512Z,100376.94
2024-02-27T20:40:29.249Z,100384.30
2024-02-27T20:42:42.074Z,100387.48
2024-02-27T20:44:54.902Z,100391.15
2024-02-27T20:47:07.756Z,100391.55
2024-02-27T20:49:20.746Z,100388.85
2024-02-27T20:51:33.669Z,100384.80
2024-02-27T20:53:47.354Z,100388.09
2024-02-27T20:56:00.088Z,100392.15
2024-02-27T20:58:12.975Z,100390.96
2024-02-27T21:00:25.963Z,100388.35
2024-02-27T21:02:39.005Z,100390.34
2024-02-27T21:04:51.854Z,100389.53
2024-02-27T21:07:04.784Z,100391.15
2024-02-27T21:09:18.997Z,100386.35
2024-02-27T21:11:31.970Z,100388.39
2024-02-27T21:13:44.688Z,100388.05
2024-02-27T21:15:58.891Z,100383.45
2024-02-27T21:18:12.159Z,100381.84
2024-02-27T21:20:25.278Z,100382.61
2024-02-27T21:22:38.484Z,100389.48
2024-02-27T21:24:51.297Z,100391.73
2024-02-27T21:27:04.662Z,100392.95
2024-02-27T21:29:17.388Z,100398.32
2024-02-27T21:31:31.269Z,100400.33
2024-02-27T21:33:43.982Z,100395.52
2024-02-27T21:35:56.808Z,100398.33
2024-02-27T21:38:10.632Z,100400.89
2024-02-27T21:40:23.483Z,100399.82
2024-02-27T21:42:36.234Z,100398.66
2024-02-27T21:44:49.245Z,100397.90
2024-02-27T21:47:02.071Z,100397.05
2024-02-27T21:49:14.738Z,100397.04
2024-02-27T21:51:28.553Z,100397.05
2024-02-27T21:53:41.377Z,100399.27
2024-02-27T21:55:54.086Z,100393.35
2024-02-27T21:58:06.996Z,100396.91
2024-02-27T22:00:21.816Z,100396.59
2024-02-27T22:02:34.546Z,100401.73
2024-02-27T22:04:47.569Z,100397.70
2024-02-27T22:07:00.433Z,100396.10
2024-02-27T22:09:13.265Z,100396.30
2024-02-27T22:11:26.554Z,100401.17
2024-02-27T22:13:39.639Z,100402.45
2024-02-27T22:15:53.137Z,100403.42
2024-02-27T22:18:06.303Z,100400.08
2024-02-27T22:20:19.082Z,100398.90
2024-02-27T22:22:31.852Z,100401.33
2024-02-27T22:24:45.283Z,100403.57
2024-02-27T22:26:58.071Z,100401.33
2024-02-27T22:29:10.775Z,100397.43
2024-02-27T22:31:23.477Z,100396.67
2024-02-27T22:33:36.243Z,100394.12
2024-02-27T22:35:48.920Z,100393.68
2024-02-27T22:38:07.545Z,100394.25
2024-02-27T22:40:20.336Z,100394.06
2024-02-27T22:42:33.348Z,100395.34
2024-02-27T22:44:46.108Z,100391.65
2024-02-27T22:46:58.971Z,100395.73
2024-02-27T22:49:11.669Z,100396.14
2024-02-27T22:51:24.443Z,100397.31
2024-02-27T22:53:37.262Z,100396.09
2024-02-27T22:55:49.944Z,100400.67
2024-02-27T22:58:02.726Z,100406.16
2024-02-27T23:00:16.738Z,100403.96
2024-02-27T23:02:29.614Z,100403.26
2024-02-27T23:04:42.310Z,100401.81
2024-02-27T23:06:55.093Z,100404.69
2024-02-27T23:09:07.872Z,100403.56
2024-02-27T23:11:20.653Z,100406.45
2024-02-27T23:13:33.912Z,100405.92
2024-02-27T23:15:48.790Z,100401.80
2024-02-27T23:18:01.988Z,100400.61
2024-02-27T23:20:18.628Z,100401.55
2024-02-27T23:22:31.382Z,100405.52
2024-02-27T23:24:44.147Z,100409.15
2024-02-27T23:26:56.931Z,100406.03
2024-02-27T23:29:09.807Z,100406.57
2024-02-27T23:31:23.097Z,100406.33
2024-02-27T23:33:36.269Z,100412.41
2024-02-27T23:35:49.048Z,100414.69
2024-02-27T23:38:04.159Z,100411.64
2024-02-27T23:40:20.091Z,100419.39
2024-02-27T23:42:35.677Z,100425.40
2024-02-27T23:44:48.608Z,100427.01
2024-02-27T23:47:01.262Z,100425.02
2024-02-27T23:49:13.981Z,100421.42
2024-02-27T23:51:26.987Z,100419.77
2024-02-27T23:53:39.734Z,100421.72
2024-02-27T23:55:52.371Z,100425.20
2024-02-27T23:58:05.152Z,100423.59
